createdAt,value
2022-09-28T00:00:06.471Z,1.40
2022-09-28T00:02:43.919Z,1.27
2022-09-28T00:05:15.695Z,1.60
2022-09-28T00:07:47.297Z,1.60
2022-09-28T00:10:19.435Z,1.48
2022-09-28T00:12:55.182Z,1.40
2022-09-28T00:15:27.210Z,1.37
2022-09-28T00:17:58.843Z,1.40
2022-09-28T00:20:30.474Z,1.40
2022-09-28T00:23:02.553Z,1.30
2022-09-28T00:25:34.116Z,2.08
2022-09-28T00:28:07.387Z,1.35
2022-09-28T00:30:40.004Z,1.30
2022-09-28T00:33:11.632Z,1.10
2022-09-28T00:35:43.571Z,1.30
2022-09-28T00:38:16.766Z,1.13
2022-09-28T00:40:48.589Z,1.10
2022-09-28T00:43:21.862Z,1.20
2022-09-28T00:46:04.394Z,1.35
2022-09-28T00:48:40.580Z,1.23
2022-09-28T00:51:13.146Z,1.10
2022-09-28T00:53:45.489Z,1.10
2022-09-28T00:56:21.606Z,1.30
2022-09-28T00:58:54.659Z,1.10
2022-09-28T01:01:27.792Z,1.27
2022-09-28T01:04:02.678Z,1.20
2022-09-28T01:06:36.435Z,1.27
2022-09-28T01:09:10.393Z,1.27
2022-09-28T01:11:43.113Z,1.05
2022-09-28T01:14:16.499Z,1.15
2022-09-28T01:17:12.459Z,1.30
2022-09-28T01:23:19.065Z,1.35
2022-09-28T01:26:18.630Z,1.30
2022-09-28T01:28:58.105Z,1.15
2022-09-28T01:31:32.874Z,1.25
2022-09-28T01:34:13.650Z,1.23
2022-09-28T01:36:51.962Z,1.20
2022-09-28T01:39:33.223Z,1.30
2022-09-28T01:42:16.824Z,1.10
2022-09-28T01:44:54.603Z,1.20
2022-09-28T01:47:29.145Z,1.45
2022-09-28T01:50:16.179Z,1.30
2022-09-28T01:53:00.957Z,1.08
2022-09-28T01:55:42.285Z,1.10
2022-09-28T01:58:22.719Z,1.45
2022-09-28T02:01:09.973Z,1.27
2022-09-28T02:03:56.446Z,1.30
2022-09-28T02:06:41.196Z,1.40
2022-09-28T02:09:20.933Z,1.40
2022-09-28T02:12:01.543Z,1.30
2022-09-28T02:14:36.421Z,1.67
2022-09-28T02:17:10.077Z,1.13
2022-09-28T02:19:43.068Z,1.10
2022-09-28T02:22:31.925Z,1.23
2022-09-28T02:25:29.263Z,1.20
2022-09-28T02:28:06.990Z,1.23
2022-09-28T02:30:42.546Z,1.15
2022-09-28T02:33:21.889Z,1.30
2022-09-28T02:35:53.515Z,1.50
2022-09-28T02:38:27.480Z,1.30
2022-09-28T02:41:29.802Z,1.40
2022-09-28T02:44:19.505Z,1.40
2022-09-28T02:47:33.147Z,1.38
2022-09-28T02:50:21.602Z,1.50
2022-09-28T02:53:00.105Z,1.30
2022-09-28T02:55:59.103Z,1.40
2022-09-28T02:59:04.273Z,1.25
2022-09-28T03:02:01.635Z,2.05
2022-09-28T03:04:43.877Z,1.23
2022-09-28T03:07:31.062Z,1.42
2022-09-28T03:10:24.164Z,1.60
2022-09-28T03:12:57.190Z,1.38
2022-09-28T03:15:34.742Z,1.58
2022-09-28T03:18:09.311Z,1.60
2022-09-28T03:20:40.969Z,2.20
2022-09-28T03:23:24.488Z,1.45
2022-09-28T03:28:32.022Z,2.10
2022-09-28T03:31:06.003Z,1.85
2022-09-28T03:33:37.798Z,1.70
2022-09-28T03:36:09.766Z,1.70
2022-09-28T03:38:43.751Z,2.10
2022-09-28T03:41:16.000Z,1.83
2022-09-28T03:43:48.620Z,2.00
2022-09-28T03:46:20.911Z,1.90
2022-09-28T03:48:57.298Z,2.03
2022-09-28T03:51:29.329Z,2.10
2022-09-28T03:54:00.957Z,2.50
2022-09-28T03:56:33.092Z,1.80
2022-09-28T03:59:05.184Z,2.13
2022-09-28T04:01:36.953Z,2.00
2022-09-28T04:04:12.860Z,2.10
2022-09-28T04:06:44.809Z,1.95
2022-09-28T04:09:17.694Z,2.10
2022-09-28T04:12:03.401Z,2.20
2022-09-28T04:14:36.620Z,2.00
2022-09-28T04:17:08.947Z,2.15
2022-09-28T04:19:44.030Z,1.80
2022-09-28T04:22:26.656Z,2.70
2022-09-28T04:24:58.543Z,2.10
2022-09-28T04:28:02.349Z,2.20
2022-09-28T04:30:35.049Z,2.30
2022-09-28T04:33:06.721Z,2.22
2022-09-28T04:35:38.322Z,2.30
2022-09-28T04:38:09.933Z,2.30
2022-09-28T04:40:41.708Z,2.47
2022-09-28T04:43:13.383Z,2.35
2022-09-28T04:45:45.134Z,2.25
2022-09-28T04:48:17.462Z,2.20
2022-09-28T04:51:07.830Z,2.50
2022-09-28T04:53:42.330Z,2.45
2022-09-28T04:56:16.022Z,2.30
2022-09-28T04:58:52.437Z,2.45
2022-09-28T05:01:24.703Z,2.30
2022-09-28T05:04:05.715Z,2.28
2022-09-28T05:06:48.233Z,2.40
2022-09-28T05:09:19.999Z,2.38
2022-09-28T05:11:53.066Z,2.45
2022-09-28T05:14:26.890Z,3.22
2022-09-28T05:16:58.631Z,4.15
2022-09-28T05:19:32.537Z,4.60
2022-09-28T05:22:11.424Z,3.88
2022-09-28T05:24:48.253Z,3.00
2022-09-28T05:27:20.532Z,2.42
2022-09-28T05:30:00.957Z,2.67
2022-09-28T05:32:35.325Z,2.50
2022-09-28T05:35:22.626Z,2.25
2022-09-28T05:37:54.969Z,2.10
2022-09-28T05:40:26.825Z,2.20
2022-09-28T05:43:02.414Z,2.40
2022-09-28T05:45:37.280Z,2.10
2022-09-28T05:48:09.317Z,2.50
2022-09-28T05:50:40.999Z,2.33
2022-09-28T05:53:12.627Z,2.30
2022-09-28T05:55:44.362Z,2.50
2022-09-28T05:58:16.734Z,2.47
2022-09-28T06:00:54.995Z,2.50
2022-09-28T06:03:27.117Z,2.22
2022-09-28T06:06:01.978Z,2.58
2022-09-28T06:08:35.226Z,2.75
2022-09-28T06:11:27.898Z,2.30
2022-09-28T06:14:02.005Z,1.85
2022-09-28T06:16:38.243Z,2.05
2022-09-28T06:19:13.873Z,2.35
2022-09-28T06:22:04.190Z,2.30
2022-09-28T06:24:39.276Z,2.30
2022-09-28T06:27:10.896Z,2.20
2022-09-28T06:29:42.543Z,2.25
2022-09-28T06:32:14.364Z,2.40
2022-09-28T06:34:50.693Z,2.40
2022-09-28T06:37:26.164Z,2.28
2022-09-28T06:39:59.235Z,2.40
2022-09-28T06:42:30.965Z,2.08
2022-09-28T06:45:25.825Z,2.60
2022-09-28T06:48:20.437Z,2.78
2022-09-28T06:50:52.201Z,2.20
2022-09-28T06:53:37.713Z,2.25
2022-09-28T06:56:14.909Z,2.00
2022-09-28T06:58:47.297Z,2.10
2022-09-28T07:01:19.347Z,2.47
2022-09-28T07:04:11.236Z,2.92
2022-09-28T07:07:04.774Z,2.22
2022-09-28T07:09:55.787Z,2.25
2022-09-28T07:13:05.529Z,3.10
2022-09-28T07:15:47.943Z,3.60
2022-09-28T07:18:20.257Z,4.30
2022-09-28T07:20:54.511Z,3.22
2022-09-28T07:26:24.342Z,2.38
2022-09-28T07:29:09.735Z,2.97
2022-09-28T07:31:55.348Z,2.53
2022-09-28T07:35:08.099Z,3.33
2022-09-28T07:38:02.476Z,2.80
2022-09-28T07:40:55.114Z,2.75
2022-09-28T07:43:26.818Z,2.30
2022-09-28T07:45:59.027Z,2.67
2022-09-28T07:48:36.671Z,2.20
2022-09-28T07:51:40.766Z,2.58
2022-09-28T07:54:31.205Z,2.38
2022-09-28T07:57:23.162Z,2.55
2022-09-28T08:00:31.952Z,2.50
2022-09-28T08:03:06.126Z,2.70
2022-09-28T08:05:39.099Z,2.60
2022-09-28T08:08:10.743Z,2.40
2022-09-28T08:10:47.329Z,2.17
2022-09-28T08:13:48.810Z,2.15
2022-09-28T08:16:30.340Z,2.20
2022-09-28T08:19:15.173Z,2.30
2022-09-28T08:21:46.974Z,2.45
2022-09-28T08:24:19.254Z,2.30
2022-09-28T08:26:51.851Z,2.22
2022-09-28T08:29:24.369Z,2.28
2022-09-28T08:31:59.550Z,2.33
2022-09-28T08:34:41.304Z,1.92
2022-09-28T08:37:28.809Z,1.92
2022-09-28T08:40:24.932Z,2.30
2022-09-28T08:44:02.799Z,1.80
2022-09-28T08:47:01.422Z,2.10
2022-09-28T08:50:02.795Z,1.90
2022-09-28T08:52:55.658Z,1.70
2022-09-28T08:55:38.076Z,1.92
2022-09-28T08:58:13.509Z,2.00
2022-09-28T09:00:52.844Z,2.00
2022-09-28T09:03:37.757Z,2.03
2022-09-28T09:06:42.254Z,2.78
2022-09-28T09:10:07.796Z,2.67
2022-09-28T09:12:59.930Z,2.63
2022-09-28T09:15:35.789Z,2.50
2022-09-28T09:18:30.054Z,2.53
2022-09-28T09:21:22.956Z,2.85
2022-09-28T09:23:56.846Z,2.50
2022-09-28T09:26:39.492Z,3.10
2022-09-28T09:29:36.597Z,2.80
2022-09-28T09:32:17.860Z,2.72
2022-09-28T09:35:24.879Z,2.38
2022-09-28T09:39:01.178Z,3.00
2022-09-28T09:42:05.814Z,2.95
2022-09-28T09:45:30.229Z,2.70
2022-09-28T09:48:29.380Z,2.35
2022-09-28T09:51:13.548Z,2.88
2022-09-28T09:53:53.325Z,2.53
2022-09-28T09:56:49.947Z,3.65
2022-09-28T09:59:37.743Z,3.90
2022-09-28T10:02:26.596Z,4.28
2022-09-28T10:05:13.489Z,5.13
2022-09-28T10:08:00.326Z,3.72
2022-09-28T10:10:37.967Z,3.03
2022-09-28T10:13:13.555Z,3.30
2022-09-28T10:15:48.071Z,3.60
2022-09-28T10:18:40.490Z,3.00
2022-09-28T10:21:37.516Z,3.92
2022-09-28T10:24:30.080Z,3.35
2022-09-28T10:27:06.601Z,2.97
2022-09-28T10:29:55.283Z,3.15
2022-09-28T10:32:40.810Z,3.17
2022-09-28T10:35:18.017Z,3.20
2022-09-28T10:38:14.847Z,3.30
2022-09-28T10:41:11.705Z,4.05
2022-09-28T10:44:06.489Z,3.17
2022-09-28T10:47:00.601Z,3.15
2022-09-28T10:49:46.762Z,3.40
2022-09-28T10:52:33.878Z,3.30
2022-09-28T10:55:20.806Z,4.05
2022-09-28T10:57:53.154Z,3.28
2022-09-28T11:00:33.494Z,3.17
2022-09-28T11:03:27.234Z,3.35
2022-09-28T11:06:05.265Z,3.65
2022-09-28T11:08:44.610Z,3.70
2022-09-28T11:11:24.871Z,3.78
2022-09-28T11:14:04.645Z,3.58
2022-09-28T11:16:39.975Z,3.75
2022-09-28T11:19:31.862Z,3.35
2022-09-28T11:22:29.907Z,3.03
2022-09-28T11:25:32.249Z,3.17
2022-09-28T11:28:05.617Z,3.38
2022-09-28T11:30:53.049Z,4.35
2022-09-28T11:34:14.868Z,3.20
2022-09-28T11:37:14.894Z,2.88
2022-09-28T11:40:20.288Z,2.90
2022-09-28T11:43:23.445Z,2.38
2022-09-28T11:46:03.838Z,2.90
2022-09-28T11:48:47.343Z,2.70
2022-09-28T11:51:24.383Z,2.40
2022-09-28T11:54:06.570Z,2.50
2022-09-28T11:56:41.685Z,2.55
2022-09-28T11:59:28.389Z,2.28
2022-09-28T12:02:17.371Z,2.38
2022-09-28T12:05:15.818Z,2.45
2022-09-28T12:07:56.111Z,2.92
2022-09-28T12:11:26.337Z,2.30
2022-09-28T12:14:39.846Z,1.80
2022-09-28T12:17:42.689Z,2.17
2022-09-28T12:20:22.843Z,1.90
2022-09-28T12:23:18.794Z,1.60
2022-09-28T12:26:02.119Z,1.60
2022-09-28T12:28:39.955Z,1.60
2022-09-28T12:31:20.507Z,1.42
2022-09-28T12:33:52.317Z,1.40
2022-09-28T12:36:36.172Z,1.33
2022-09-28T12:39:40.674Z,1.70
2022-09-28T12:42:55.088Z,1.50
2022-09-28T12:46:10.832Z,0.90
2022-09-28T12:49:21.672Z,1.02
2022-09-28T12:51:54.015Z,1.13
2022-09-28T12:54:56.903Z,1.10
2022-09-28T12:57:58.392Z,1.00
2022-09-28T13:00:39.995Z,1.23
2022-09-28T13:03:19.241Z,1.02
2022-09-28T13:06:21.102Z,1.00
2022-09-28T13:09:21.856Z,0.90
2022-09-28T13:12:18.115Z,0.80
2022-09-28T13:15:06.459Z,0.82
2022-09-28T13:18:03.781Z,1.40
2022-09-28T13:20:53.433Z,1.20
2022-09-28T13:23:31.068Z,0.70
2022-09-28T13:26:29.323Z,0.95
2022-09-28T13:29:14.190Z,1.13
2022-09-28T13:31:48.968Z,0.90
2022-09-28T13:34:30.633Z,0.80
2022-09-28T13:37:17.348Z,0.80
2022-09-28T13:39:56.355Z,1.10
2022-09-28T13:42:55.135Z,0.90
2022-09-28T13:45:34.604Z,0.77
2022-09-28T13:48:37.418Z,0.90
2022-09-28T13:51:24.671Z,1.00
2022-09-28T13:54:16.721Z,0.80
2022-09-28T13:56:59.357Z,0.93
2022-09-28T13:59:34.386Z,0.90
2022-09-28T14:02:30.377Z,0.90
2022-09-28T14:05:05.479Z,0.90
2022-09-28T14:07:37.026Z,1.00
2022-09-28T14:10:40.510Z,0.90
2022-09-28T14:13:34.941Z,0.85
2022-09-28T14:16:21.039Z,1.20
2022-09-28T14:19:03.631Z,0.90
2022-09-28T14:21:56.557Z,1.00
2022-09-28T14:24:50.176Z,0.80
2022-09-28T14:27:51.328Z,0.90
2022-09-28T14:30:26.559Z,0.90
2022-09-28T14:32:59.761Z,1.00
2022-09-28T14:35:39.258Z,0.93
2022-09-28T14:38:52.089Z,0.90
2022-09-28T14:41:44.036Z,1.00
2022-09-28T14:44:18.840Z,1.00
2022-09-28T14:47:39.919Z,1.00
2022-09-28T14:50:18.750Z,1.00
2022-09-28T14:53:12.147Z,1.20
2022-09-28T14:56:08.457Z,0.90
2022-09-28T14:58:43.829Z,0.80
2022-09-28T15:01:20.422Z,0.90
2022-09-28T15:04:02.079Z,0.93
2022-09-28T15:06:51.171Z,1.00
2022-09-28T15:09:34.237Z,0.98
2022-09-28T15:12:19.818Z,0.90
2022-09-28T15:14:58.823Z,1.00
2022-09-28T15:17:39.170Z,1.13
2022-09-28T15:20:31.030Z,1.00
2022-09-28T15:23:02.688Z,1.20
2022-09-28T15:25:35.885Z,1.00
2022-09-28T15:28:19.342Z,0.80
2022-09-28T15:30:51.986Z,1.02
2022-09-28T15:33:53.558Z,1.23
2022-09-28T15:36:48.005Z,0.90
2022-09-28T15:39:27.637Z,0.90
2022-09-28T15:42:00.569Z,1.10
2022-09-28T15:44:37.180Z,1.10
2022-09-28T15:47:25.923Z,1.10
2022-09-28T15:50:03.016Z,1.15
2022-09-28T15:52:46.939Z,1.10
2022-09-28T15:55:28.526Z,1.10
2022-09-28T15:58:19.242Z,1.10
2022-09-28T16:01:12.126Z,1.38
2022-09-28T16:03:43.786Z,1.20
2022-09-28T16:06:15.435Z,1.35
2022-09-28T16:08:50.629Z,1.25
2022-09-28T16:11:34.554Z,1.35
2022-09-28T16:14:18.766Z,1.40
2022-09-28T16:16:52.250Z,1.10
2022-09-28T16:19:36.174Z,1.10
2022-09-28T16:22:16.323Z,1.30
2022-09-28T16:25:00.018Z,1.40
2022-09-28T16:27:45.714Z,1.50
2022-09-28T16:30:24.231Z,1.85
2022-09-28T16:33:25.676Z,1.70
2022-09-28T16:36:03.239Z,1.50
2022-09-28T16:38:37.630Z,1.60
2022-09-28T16:41:11.536Z,1.30
2022-09-28T16:43:43.122Z,1.50
2022-09-28T16:46:17.707Z,1.73
2022-09-28T16:51:27.270Z,1.92
2022-09-28T16:54:44.040Z,1.90
2022-09-28T16:57:16.278Z,2.25
2022-09-28T16:59:47.881Z,1.90
2022-09-28T17:05:20.160Z,2.17
2022-09-28T17:08:02.999Z,2.00
2022-09-28T17:11:13.088Z,2.30
2022-09-28T17:13:42.244Z,2.10
2022-09-28T17:16:28.229Z,2.17
2022-09-28T17:19:28.655Z,3.35
2022-09-28T17:22:01.450Z,2.70
2022-09-28T17:24:33.114Z,2.22
2022-09-28T17:27:06.847Z,2.58
2022-09-28T17:29:38.494Z,2.80
2022-09-28T17:32:18.642Z,2.50
2022-09-28T17:35:00.872Z,3.40
2022-09-28T17:37:40.606Z,2.90
2022-09-28T17:40:21.021Z,3.17
2022-09-28T17:42:55.171Z,2.83
2022-09-28T17:45:28.691Z,3.38
2022-09-28T17:48:00.767Z,3.10
2022-09-28T17:50:34.919Z,3.28
2022-09-28T17:53:06.560Z,3.38
2022-09-28T17:55:39.305Z,3.10
2022-09-28T17:58:23.189Z,3.40
2022-09-28T18:00:54.969Z,3.50
2022-09-28T18:03:26.914Z,3.42
2022-09-28T18:06:06.165Z,3.25
2022-09-28T18:08:37.946Z,3.50
2022-09-28T18:11:11.081Z,3.70
2022-09-28T18:13:43.573Z,3.58
2022-09-28T18:16:15.830Z,4.15
2022-09-28T18:18:47.768Z,4.10
2022-09-28T18:21:19.951Z,4.47
2022-09-28T18:24:17.102Z,4.30
2022-09-28T18:26:48.879Z,4.10
2022-09-28T18:29:20.511Z,4.03
2022-09-28T18:31:52.385Z,4.13
2022-09-28T18:34:24.199Z,4.95
2022-09-28T18:36:55.958Z,3.45
2022-09-28T18:39:27.607Z,3.60
2022-09-28T18:41:59.275Z,4.05
2022-09-28T18:44:32.556Z,5.20
2022-09-28T18:47:04.783Z,4.72
2022-09-28T18:49:36.421Z,4.82
2022-09-28T18:52:08.133Z,4.20
2022-09-28T18:54:40.259Z,4.05
2022-09-28T18:57:12.155Z,4.07
2022-09-28T18:59:44.762Z,4.63
2022-09-28T19:02:16.570Z,5.13
2022-09-28T19:04:48.358Z,4.18
2022-09-28T19:07:21.238Z,5.05
2022-09-28T19:09:53.315Z,5.78
2022-09-28T19:12:25.152Z,5.05
2022-09-28T19:14:56.947Z,4.25
2022-09-28T19:17:29.768Z,4.50
2022-09-28T19:20:01.467Z,5.32
2022-09-28T19:22:33.216Z,5.20
2022-09-28T19:25:05.168Z,5.95
2022-09-28T19:27:36.844Z,5.70
2022-09-28T19:30:08.986Z,5.53
2022-09-28T19:32:42.475Z,5.38
2022-09-28T19:35:14.195Z,5.60
2022-09-28T19:37:48.814Z,6.43
2022-09-28T19:40:20.606Z,7.18
2022-09-28T19:42:52.364Z,6.60
2022-09-28T19:45:23.981Z,6.78
2022-09-28T19:47:59.976Z,6.78
2022-09-28T19:50:31.846Z,7.97
2022-09-28T19:53:06.674Z,8.68
2022-09-28T19:55:39.015Z,8.05
2022-09-28T19:58:10.659Z,7.07
2022-09-28T20:00:42.248Z,7.90
2022-09-28T20:03:14.199Z,7.90
2022-09-28T20:05:49.262Z,8.20
2022-09-28T20:08:21.948Z,7.68
2022-09-28T20:10:54.936Z,7.63
2022-09-28T20:13:32.511Z,8.20
2022-09-28T20:16:11.404Z,8.00
2022-09-28T20:18:49.821Z,8.27
2022-09-28T20:21:26.465Z,7.53
2022-09-28T20:23:58.918Z,7.50
2022-09-28T20:26:30.736Z,8.20
2022-09-28T20:29:02.337Z,7.88
2022-09-28T20:31:38.717Z,8.70
2022-09-28T20:34:12.108Z,8.00
2022-09-28T20:36:44.708Z,8.10
2022-09-28T20:39:16.435Z,7.65
2022-09-28T20:41:49.045Z,8.23
2022-09-28T20:44:21.069Z,8.40
2022-09-28T20:46:52.760Z,8.07
2022-09-28T20:49:24.538Z,7.85
2022-09-28T20:51:56.157Z,7.43
2022-09-28T20:54:28.022Z,8.38
2022-09-28T20:56:59.618Z,7.78
2022-09-28T20:59:32.253Z,7.47
2022-09-28T21:02:03.879Z,8.38
2022-09-28T21:04:35.772Z,7.63
2022-09-28T21:07:10.615Z,7.78
2022-09-28T21:09:42.247Z,8.35
2022-09-28T21:12:15.332Z,8.05
2022-09-28T21:14:47.068Z,7.90
2022-09-28T21:17:19.228Z,7.65
2022-09-28T21:19:50.833Z,7.90
2022-09-28T21:22:22.424Z,8.20
2022-09-28T21:24:56.646Z,7.68
2022-09-28T21:27:28.539Z,8.27
2022-09-28T21:30:01.005Z,8.27
2022-09-28T21:32:35.170Z,9.18
2022-09-28T21:35:11.538Z,9.27
2022-09-28T21:37:43.133Z,9.10
2022-09-28T21:40:14.830Z,9.80
2022-09-28T21:42:46.544Z,9.77
2022-09-28T21:45:18.523Z,8.82
2022-09-28T21:47:56.758Z,9.30
2022-09-28T21:50:28.418Z,11.02
2022-09-28T21:53:01.774Z,9.05
2022-09-28T21:55:33.380Z,9.43
2022-09-28T21:58:04.971Z,8.48
2022-09-28T22:00:36.855Z,9.77
2022-09-28T22:03:08.450Z,9.75
2022-09-28T22:05:40.099Z,10.45
2022-09-28T22:08:12.258Z,9.35
2022-09-28T22:10:43.901Z,9.15
2022-09-28T22:13:15.533Z,9.85
2022-09-28T22:15:52.961Z,8.90
2022-09-28T22:18:26.140Z,10.00
2022-09-28T22:21:12.572Z,9.20
2022-09-28T22:23:44.732Z,9.98
2022-09-28T22:26:26.452Z,10.25
2022-09-28T22:29:07.128Z,9.50
2022-09-28T22:31:40.744Z,9.90
2022-09-28T22:34:12.421Z,9.55
2022-09-28T22:36:44.070Z,9.80
2022-09-28T22:39:15.677Z,10.60
2022-09-28T22:41:48.337Z,9.85
2022-09-28T22:44:20.340Z,9.75
2022-09-28T22:46:55.936Z,9.52
2022-09-28T22:49:27.804Z,9.38
2022-09-28T22:51:59.462Z,9.57
2022-09-28T22:54:31.082Z,9.85
2022-09-28T22:57:02.705Z,9.38
2022-09-28T22:59:34.299Z,9.50
2022-09-28T23:02:06.634Z,9.63
2022-09-28T23:04:38.247Z,10.27
2022-09-28T23:07:09.927Z,10.02
2022-09-28T23:09:41.513Z,9.75
2022-09-28T23:12:13.140Z,9.40
2022-09-28T23:14:44.730Z,9.25
2022-09-28T23:17:16.346Z,9.30
2022-09-28T23:19:49.017Z,8.82
2022-09-28T23:22:20.673Z,9.23
2022-09-28T23:24:52.458Z,8.73
2022-09-28T23:27:24.141Z,9.27
2022-09-28T23:29:56.042Z,8.55
2022-09-28T23:32:33.594Z,8.80
2022-09-28T23:35:05.691Z,8.68
2022-09-28T23:37:37.738Z,9.05
2022-09-28T23:40:09.654Z,8.65
2022-09-28T23:42:41.573Z,9.02
2022-09-28T23:45:13.215Z,9.05
2022-09-28T23:47:44.841Z,9.25
2022-09-28T23:50:17.498Z,8.88
2022-09-28T23:52:49.850Z,9.30
2022-09-28T23:55:21.440Z,8.55
2022-09-28T23:57:55.608Z,8.43
